createdAt,value
2022-08-01T00:00:09.945Z,19.91
2022-08-01T00:02:43.702Z,20.15
2022-08-01T00:05:11.871Z,20.17
2022-08-01T00:07:39.092Z,20.09
2022-08-01T00:10:08.052Z,20.07
2022-08-01T00:12:34.922Z,20.07
2022-08-01T00:15:01.727Z,20.04
2022-08-01T00:17:28.479Z,20.11
2022-08-01T00:19:55.153Z,20.20
2022-08-01T00:22:21.783Z,20.07
2022-08-01T00:24:48.629Z,20.18
2022-08-01T00:27:15.366Z,20.23
2022-08-01T00:30:13.571Z,20.40
2022-08-01T00:32:32.553Z,20.39
2022-08-01T00:34:59.358Z,20.45
2022-08-01T00:37:26.058Z,20.33
2022-08-01T00:39:52.793Z,20.81
2022-08-01T00:42:19.610Z,20.87
2022-08-01T00:44:46.280Z,20.68
2022-08-01T00:47:13.217Z,20.77
2022-08-01T00:49:39.973Z,20.62
2022-08-01T00:52:07.461Z,20.64
2022-08-01T00:54:34.536Z,20.34
2022-08-01T00:57:01.214Z,20.44
2022-08-01T00:59:28.823Z,20.46
2022-08-01T01:01:56.001Z,20.49
2022-08-01T01:04:23.409Z,20.69
2022-08-01T01:07:01.137Z,20.56
2022-08-01T01:09:45.801Z,20.58
2022-08-01T01:12:37.276Z,20.63
2022-08-01T01:15:11.976Z,20.65
2022-08-01T01:17:52.108Z,20.58
2022-08-01T01:20:21.285Z,20.38
2022-08-01T01:22:54.133Z,20.75
2022-08-01T01:25:31.764Z,20.64
2022-08-01T01:28:10.079Z,20.53
2022-08-01T01:30:38.621Z,20.65
2022-08-01T01:33:08.464Z,20.43
2022-08-01T01:35:39.296Z,20.70
2022-08-01T01:38:10.255Z,20.58
2022-08-01T01:40:38.296Z,20.58
2022-08-01T01:43:05.853Z,20.57
2022-08-01T01:45:33.089Z,20.47
2022-08-01T01:48:00.133Z,20.83
2022-08-01T01:50:27.413Z,20.57
2022-08-01T01:52:55.740Z,20.35
2022-08-01T01:55:23.493Z,20.39
2022-08-01T01:57:51.808Z,20.48
2022-08-01T02:00:18.651Z,20.52
2022-08-01T02:02:45.723Z,20.38
2022-08-01T02:05:13.708Z,20.49
2022-08-01T02:07:40.795Z,20.39
2022-08-01T02:10:08.586Z,20.51
2022-08-01T02:12:38.092Z,20.49
2022-08-01T02:15:05.974Z,20.54
2022-08-01T02:17:33.263Z,20.62
2022-08-01T02:19:59.990Z,20.49
2022-08-01T02:22:42.034Z,20.51
2022-08-01T02:25:22.637Z,20.44
2022-08-01T02:28:02.414Z,20.56
2022-08-01T02:30:34.902Z,20.55
2022-08-01T02:33:15.664Z,20.36
2022-08-01T02:36:30.666Z,20.55
2022-08-01T02:38:34.045Z,20.37
2022-08-01T02:41:05.308Z,20.59
2022-08-01T02:43:33.835Z,20.64
2022-08-01T02:46:03.094Z,20.55
2022-08-01T02:48:31.585Z,20.51
2022-08-01T02:50:59.881Z,20.44
2022-08-01T02:53:44.243Z,20.38
2022-08-01T02:56:12.978Z,20.30
2022-08-01T02:58:40.567Z,20.04
2022-08-01T03:01:08.760Z,20.28
2022-08-01T03:03:36.144Z,20.35
2022-08-01T03:06:03.838Z,20.50
2022-08-01T03:08:31.265Z,20.40
2022-08-01T03:10:59.437Z,20.28
2022-08-01T03:13:27.120Z,20.24
2022-08-01T03:15:54.674Z,20.17
2022-08-01T03:18:23.107Z,20.35
2022-08-01T03:20:50.348Z,20.30
2022-08-01T03:23:18.340Z,20.32
2022-08-01T03:25:45.672Z,20.31
2022-08-01T03:28:14.864Z,20.39
2022-08-01T03:30:41.865Z,20.21
2022-08-01T03:33:08.849Z,20.31
2022-08-01T03:35:38.942Z,20.33
2022-08-01T03:38:16.251Z,20.24
2022-08-01T03:40:50.426Z,20.18
2022-08-01T03:43:20.603Z,20.12
2022-08-01T03:45:50.836Z,20.35
2022-08-01T03:48:19.609Z,20.41
2022-08-01T03:50:52.681Z,20.47
2022-08-01T03:53:24.080Z,20.51
2022-08-01T03:55:51.837Z,20.42
2022-08-01T03:58:18.859Z,20.63
2022-08-01T04:00:46.248Z,20.46
2022-08-01T04:03:13.853Z,20.31
2022-08-01T04:05:44.493Z,20.22
2022-08-01T04:08:11.457Z,20.15
2022-08-01T04:10:39.067Z,20.17
2022-08-01T04:13:05.738Z,20.33
2022-08-01T04:15:32.531Z,20.27
2022-08-01T04:17:59.733Z,20.31
2022-08-01T04:20:26.588Z,20.36
2022-08-01T04:22:53.310Z,20.31
2022-08-01T04:25:35.296Z,20.17
2022-08-01T04:28:06.474Z,20.16
2022-08-01T04:30:35.788Z,20.31
2022-08-01T04:33:04.195Z,20.14
2022-08-01T04:36:01.503Z,20.08
2022-08-01T04:38:23.620Z,20.06
2022-08-01T04:40:51.953Z,20.35
2022-08-01T04:43:19.968Z,20.51
2022-08-01T04:45:47.801Z,20.69
2022-08-01T04:48:16.803Z,20.71
2022-08-01T04:50:43.591Z,20.66
2022-08-01T04:53:20.400Z,20.50
2022-08-01T04:55:47.487Z,20.84
2022-08-01T04:58:18.177Z,20.65
2022-08-01T05:00:46.088Z,20.72
2022-08-01T05:03:12.764Z,20.85
2022-08-01T05:05:39.468Z,20.85
2022-08-01T05:08:07.151Z,20.66
2022-08-01T05:10:34.455Z,20.60
2022-08-01T05:13:01.287Z,20.59
2022-08-01T05:15:28.638Z,20.43
2022-08-01T05:17:55.594Z,20.48
2022-08-01T05:20:22.428Z,20.61
2022-08-01T05:22:49.232Z,20.54
2022-08-01T05:25:20.386Z,20.61
2022-08-01T05:27:49.194Z,20.52
2022-08-01T05:30:17.945Z,20.28
2022-08-01T05:32:44.854Z,20.21
2022-08-01T05:35:11.934Z,20.61
2022-08-01T05:37:38.661Z,20.61
2022-08-01T05:40:08.446Z,20.61
2022-08-01T05:42:37.553Z,20.75
2022-08-01T05:45:04.724Z,20.62
2022-08-01T05:47:31.492Z,20.69
2022-08-01T05:49:58.256Z,20.78
2022-08-01T05:52:24.998Z,20.82
2022-08-01T05:54:51.776Z,20.61
2022-08-01T05:57:18.654Z,20.52
2022-08-01T05:59:45.305Z,20.48
2022-08-01T06:02:12.266Z,20.37
2022-08-01T06:04:38.998Z,20.52
2022-08-01T06:07:05.760Z,20.61
2022-08-01T06:09:32.535Z,20.56
2022-08-01T06:11:59.260Z,20.69
2022-08-01T06:14:25.957Z,20.77
2022-08-01T06:16:52.684Z,20.81
2022-08-01T06:19:19.399Z,21.00
2022-08-01T06:21:46.126Z,21.16
2022-08-01T06:24:12.840Z,21.13
2022-08-01T06:26:39.577Z,21.27
2022-08-01T06:29:06.307Z,21.35
2022-08-01T06:31:34.014Z,21.53
2022-08-01T06:34:00.800Z,21.33
2022-08-01T06:36:27.772Z,21.22
2022-08-01T06:38:54.433Z,21.36
2022-08-01T06:41:21.207Z,21.32
2022-08-01T06:43:47.869Z,21.37
2022-08-01T06:46:14.778Z,21.50
2022-08-01T06:48:41.737Z,21.57
2022-08-01T06:51:14.610Z,21.54
2022-08-01T06:53:41.370Z,21.71
2022-08-01T06:56:10.784Z,21.61
2022-08-01T06:58:37.692Z,21.64
2022-08-01T07:01:08.776Z,21.92
2022-08-01T07:03:52.318Z,21.92
2022-08-01T07:06:24.421Z,21.98
2022-08-01T07:08:51.478Z,22.22
2022-08-01T07:11:18.358Z,22.11
2022-08-01T07:13:46.797Z,22.29
2022-08-01T07:16:14.624Z,22.40
2022-08-01T07:18:41.891Z,22.41
2022-08-01T07:21:16.403Z,22.19
2022-08-01T07:23:55.922Z,22.07
2022-08-01T07:26:23.339Z,22.21
2022-08-01T07:28:50.575Z,22.10
2022-08-01T07:31:17.429Z,22.00
2022-08-01T07:33:49.046Z,21.94
2022-08-01T07:36:19.827Z,21.93
2022-08-01T07:38:47.395Z,21.99
2022-08-01T07:41:14.588Z,22.10
2022-08-01T07:43:47.247Z,22.16
2022-08-01T07:46:23.038Z,22.13
2022-08-01T07:48:49.933Z,21.95
2022-08-01T07:51:16.871Z,22.01
2022-08-01T07:53:43.529Z,21.94
2022-08-01T07:56:10.813Z,22.07
2022-08-01T07:58:37.737Z,22.15
2022-08-01T08:01:04.940Z,22.18
2022-08-01T08:03:31.687Z,21.90
2022-08-01T08:06:00.237Z,21.94
2022-08-01T08:08:27.495Z,22.06
2022-08-01T08:10:54.355Z,22.32
2022-08-01T08:13:21.147Z,22.28
2022-08-01T08:15:48.881Z,22.11
2022-08-01T08:18:16.272Z,22.13
2022-08-01T08:20:43.503Z,22.32
2022-08-01T08:23:41.349Z,22.20
2022-08-01T08:26:11.872Z,22.11
2022-08-01T08:28:38.819Z,22.03
2022-08-01T08:31:08.087Z,21.93
2022-08-01T08:33:52.659Z,22.25
2022-08-01T08:36:19.355Z,22.52
2022-08-01T08:38:46.362Z,22.52
2022-08-01T08:41:15.865Z,22.49
2022-08-01T08:43:44.716Z,22.59
2022-08-01T08:46:12.817Z,22.62
2022-08-01T08:48:41.272Z,22.65
2022-08-01T08:51:09.787Z,22.52
2022-08-01T08:53:36.832Z,22.48
2022-08-01T08:56:04.116Z,22.54
2022-08-01T08:58:35.140Z,22.61
2022-08-01T09:01:02.257Z,22.83
2022-08-01T09:03:29.167Z,22.86
2022-08-01T09:05:55.935Z,22.99
2022-08-01T09:08:22.653Z,22.93
2022-08-01T09:10:49.400Z,23.11
2022-08-01T09:13:16.373Z,23.11
2022-08-01T09:15:51.600Z,23.13
2022-08-01T09:18:32.785Z,23.10
2022-08-01T09:21:08.525Z,23.28
2022-08-01T09:23:54.165Z,23.04
2022-08-01T09:26:34.024Z,22.78
2022-08-01T09:29:04.705Z,22.68
2022-08-01T09:31:42.391Z,22.51
2022-08-01T09:34:15.938Z,22.36
2022-08-01T09:37:07.698Z,22.59
2022-08-01T09:39:40.716Z,22.61
2022-08-01T09:42:28.672Z,22.67
2022-08-01T09:44:56.391Z,22.70
2022-08-01T09:47:23.874Z,22.71
2022-08-01T09:49:57.354Z,22.85
2022-08-01T09:52:29.111Z,22.95
2022-08-01T09:55:06.121Z,22.91
2022-08-01T09:57:33.365Z,23.07
2022-08-01T10:00:04.290Z,23.13
2022-08-01T10:02:41.112Z,23.18
2022-08-01T10:05:10.562Z,23.17
2022-08-01T10:08:01.446Z,23.30
2022-08-01T10:10:31.465Z,23.43
2022-08-01T10:12:59.867Z,23.49
2022-08-01T10:15:37.247Z,23.63
2022-08-01T10:18:16.040Z,23.46
2022-08-01T10:20:44.011Z,23.48
2022-08-01T10:23:11.615Z,23.66
2022-08-01T10:25:46.636Z,23.82
2022-08-01T10:28:21.274Z,23.82
2022-08-01T10:30:51.197Z,23.93
2022-08-01T10:33:51.974Z,23.70
2022-08-01T10:36:10.927Z,23.52
2022-08-01T10:38:38.213Z,23.57
2022-08-01T10:41:08.576Z,23.63
2022-08-01T10:43:36.624Z,23.70
2022-08-01T10:46:05.164Z,23.76
2022-08-01T10:48:50.277Z,23.75
2022-08-01T10:51:27.084Z,23.82
2022-08-01T10:54:13.387Z,23.92
2022-08-01T10:56:50.852Z,23.90
2022-08-01T10:59:39.027Z,23.86
2022-08-01T11:02:10.085Z,24.04
2022-08-01T11:04:56.223Z,23.71
2022-08-01T11:07:25.899Z,23.73
2022-08-01T11:10:26.163Z,23.52
2022-08-01T11:12:53.722Z,23.18
2022-08-01T11:15:30.023Z,23.25
2022-08-01T11:18:00.482Z,23.00
2022-08-01T11:20:32.715Z,23.15
2022-08-01T11:23:00.197Z,23.04
2022-08-01T11:26:06.138Z,23.10
2022-08-01T11:28:37.088Z,22.79
2022-08-01T11:31:10.764Z,22.90
2022-08-01T11:33:46.155Z,22.95
2022-08-01T11:36:14.131Z,23.06
2022-08-01T11:39:00.823Z,23.06
2022-08-01T11:41:34.279Z,23.33
2022-08-01T11:44:24.786Z,23.55
2022-08-01T11:47:01.830Z,23.79
2022-08-01T11:49:38.750Z,23.88
2022-08-01T11:52:30.173Z,23.95
2022-08-01T11:55:10.070Z,23.97
2022-08-01T11:57:38.230Z,23.66
2022-08-01T12:00:26.315Z,23.69
2022-08-01T12:03:04.418Z,23.93
2022-08-01T12:05:34.411Z,23.59
2022-08-01T12:08:01.863Z,23.91
2022-08-01T12:10:47.197Z,24.11
2022-08-01T12:13:17.345Z,24.13
2022-08-01T12:15:44.419Z,24.23
2022-08-01T12:18:14.845Z,24.04
2022-08-01T12:20:56.133Z,24.04
2022-08-01T12:23:23.361Z,23.95
2022-08-01T12:25:55.663Z,24.01
2022-08-01T12:28:25.581Z,24.18
2022-08-01T12:30:54.817Z,24.43
2022-08-01T12:33:24.700Z,24.36
2022-08-01T12:35:51.566Z,24.23
2022-08-01T12:38:20.945Z,24.10
2022-08-01T12:40:52.960Z,24.09
2022-08-01T12:43:27.803Z,24.01
2022-08-01T12:46:00.787Z,24.15
2022-08-01T12:48:28.301Z,24.28
2022-08-01T12:50:58.648Z,24.06
2022-08-01T12:53:27.059Z,23.76
2022-08-01T12:56:07.125Z,23.83
2022-08-01T12:58:39.395Z,23.92
2022-08-01T13:01:16.353Z,23.82
2022-08-01T13:04:01.486Z,24.08
2022-08-01T13:06:31.695Z,24.17
2022-08-01T13:09:12.486Z,23.99
2022-08-01T13:12:04.098Z,24.21
2022-08-01T13:14:41.842Z,24.24
2022-08-01T13:17:09.225Z,24.42
2022-08-01T13:19:49.005Z,24.37
2022-08-01T13:22:23.850Z,24.08
2022-08-01T13:24:50.829Z,24.14
2022-08-01T13:27:24.383Z,24.40
2022-08-01T13:29:53.977Z,24.38
2022-08-01T13:32:30.085Z,24.53
2022-08-01T13:35:07.400Z,24.51
2022-08-01T13:37:39.369Z,24.09
2022-08-01T13:40:08.396Z,23.96
2022-08-01T13:42:37.883Z,24.02
2022-08-01T13:45:15.475Z,23.85
2022-08-01T13:48:03.737Z,23.52
2022-08-01T13:50:40.213Z,23.53
2022-08-01T13:53:13.065Z,23.75
2022-08-01T13:55:47.485Z,23.79
2022-08-01T13:59:17.943Z,23.71
2022-08-01T14:01:50.202Z,23.98
2022-08-01T14:04:17.535Z,24.11
2022-08-01T14:07:36.477Z,23.94
2022-08-01T14:10:19.378Z,23.97
2022-08-01T14:12:53.516Z,23.60
2022-08-01T14:15:37.921Z,23.59
2022-08-01T14:18:33.207Z,23.71
2022-08-01T14:21:05.700Z,23.51
2022-08-01T14:23:38.287Z,23.57
2022-08-01T14:26:12.535Z,23.75
2022-08-01T14:29:10.839Z,23.89
2022-08-01T14:31:37.698Z,23.77
2022-08-01T14:34:04.395Z,23.78
2022-08-01T14:36:32.509Z,23.55
2022-08-01T14:39:05.277Z,23.63
2022-08-01T14:41:33.545Z,23.43
2022-08-01T14:44:02.706Z,23.65
2022-08-01T14:46:35.819Z,23.79
2022-08-01T14:49:02.694Z,24.01
2022-08-01T14:51:33.963Z,23.95
2022-08-01T14:54:01.201Z,23.77
2022-08-01T14:56:28.485Z,23.59
2022-08-01T14:58:58.229Z,23.59
2022-08-01T15:01:25.487Z,23.62
2022-08-01T15:03:56.950Z,23.64
2022-08-01T15:06:26.732Z,23.79
2022-08-01T15:08:53.528Z,23.81
2022-08-01T15:11:26.113Z,23.60
2022-08-01T15:14:19.969Z,23.96
2022-08-01T15:16:46.907Z,23.96
2022-08-01T15:19:17.434Z,23.98
2022-08-01T15:21:44.388Z,24.09
2022-08-01T15:24:13.936Z,23.96
2022-08-01T15:26:40.658Z,23.89
2022-08-01T15:29:13.706Z,23.70
2022-08-01T15:31:40.776Z,23.77
2022-08-01T15:34:07.862Z,23.81
2022-08-01T15:36:41.867Z,23.91
2022-08-01T15:39:12.689Z,24.21
2022-08-01T15:41:42.766Z,24.27
2022-08-01T15:44:16.245Z,24.35
2022-08-01T15:46:43.537Z,24.44
2022-08-01T15:49:11.655Z,24.19
2022-08-01T15:51:38.790Z,24.42
2022-08-01T15:54:09.240Z,24.50
2022-08-01T15:56:39.874Z,24.55
2022-08-01T15:59:23.041Z,24.29
2022-08-01T16:01:51.222Z,24.01
2022-08-01T16:04:19.541Z,23.96
2022-08-01T16:06:47.078Z,24.03
2022-08-01T16:09:19.197Z,23.70
2022-08-01T16:11:51.122Z,24.03
2022-08-01T16:14:18.454Z,24.05
2022-08-01T16:16:45.216Z,24.23
2022-08-01T16:19:19.101Z,24.35
2022-08-01T16:21:47.852Z,24.35
2022-08-01T16:24:15.245Z,24.15
2022-08-01T16:26:45.733Z,24.52
2022-08-01T16:29:29.424Z,23.90
2022-08-01T16:32:10.782Z,23.71
2022-08-01T16:34:46.756Z,23.60
2022-08-01T16:37:15.299Z,23.40
2022-08-01T16:39:51.551Z,23.87
2022-08-01T16:42:23.635Z,24.30
2022-08-01T16:45:22.419Z,24.02
2022-08-01T16:47:50.019Z,24.10
2022-08-01T16:51:08.955Z,24.18
2022-08-01T16:56:22.112Z,24.17
2022-08-01T16:58:54.425Z,24.05
2022-08-01T17:01:58.440Z,23.88
2022-08-01T17:04:16.136Z,23.47
2022-08-01T17:06:53.912Z,23.73
2022-08-01T17:09:23.149Z,23.63
2022-08-01T17:11:50.217Z,23.73
2022-08-01T17:14:26.291Z,24.19
2022-08-01T17:16:53.236Z,24.70
2022-08-01T17:19:20.013Z,24.97
2022-08-01T17:21:56.074Z,24.83
2022-08-01T17:24:23.725Z,24.87
2022-08-01T17:26:50.859Z,24.98
2022-08-01T17:29:17.983Z,24.71
2022-08-01T17:31:44.657Z,24.85
2022-08-01T17:34:22.410Z,24.53
2022-08-01T17:36:49.561Z,24.26
2022-08-01T17:42:17.012Z,24.37
2022-08-01T17:44:49.130Z,24.67
2022-08-01T17:47:49.349Z,24.75
2022-08-01T17:50:20.196Z,25.06
2022-08-01T17:52:50.204Z,24.98
2022-08-01T17:55:55.834Z,25.01
2022-08-01T17:58:07.217Z,24.87
2022-08-01T18:00:40.933Z,24.60
2022-08-01T18:03:50.035Z,24.61
2022-08-01T18:06:32.135Z,24.57
2022-08-01T18:09:03.086Z,24.55
2022-08-01T18:11:37.242Z,24.49
2022-08-01T18:14:05.123Z,24.57
2022-08-01T18:16:31.964Z,24.58
2022-08-01T18:19:04.983Z,24.62
2022-08-01T18:21:37.581Z,24.37
2022-08-01T18:24:11.888Z,24.18
2022-08-01T18:26:41.245Z,24.12
2022-08-01T18:29:08.099Z,24.23
2022-08-01T18:31:38.312Z,24.19
2022-08-01T18:34:06.727Z,24.04
2022-08-01T18:36:39.701Z,24.02
2022-08-01T18:39:10.349Z,24.01
2022-08-01T18:41:38.290Z,23.71
2022-08-01T18:44:08.249Z,23.48
2022-08-01T18:46:41.959Z,23.44
2022-08-01T18:51:54.343Z,23.35
2022-08-01T18:54:25.368Z,23.23
2022-08-01T18:57:01.246Z,23.06
2022-08-01T18:59:30.240Z,23.03
2022-08-01T19:02:04.702Z,22.85
2022-08-01T19:04:31.638Z,22.82
2022-08-01T19:06:58.760Z,22.69
2022-08-01T19:09:27.608Z,22.66
2022-08-01T19:11:56.607Z,22.59
2022-08-01T19:14:29.057Z,22.42
2022-08-01T19:16:56.619Z,22.33
2022-08-01T19:19:28.037Z,22.12
2022-08-01T19:21:55.290Z,22.02
2022-08-01T19:24:23.355Z,21.88
2022-08-01T19:26:51.691Z,21.88
2022-08-01T19:29:35.877Z,21.84
2022-08-01T19:32:05.552Z,21.76
2022-08-01T19:34:35.481Z,21.66
2022-08-01T19:37:04.037Z,21.61
2022-08-01T19:39:44.238Z,21.62
2022-08-01T19:42:12.763Z,21.58
2022-08-01T19:44:40.014Z,21.56
2022-08-01T19:47:07.310Z,21.36
2022-08-01T19:49:38.512Z,21.29
2022-08-01T19:52:05.971Z,21.35
2022-08-01T19:54:40.182Z,21.34
2022-08-01T19:57:08.117Z,21.28
2022-08-01T19:59:35.985Z,21.25
2022-08-01T20:02:04.526Z,21.19
2022-08-01T20:04:31.604Z,21.24
2022-08-01T20:06:59.102Z,21.34
2022-08-01T20:09:27.769Z,21.31
2022-08-01T20:11:55.023Z,21.33
2022-08-01T20:14:25.926Z,21.19
2022-08-01T20:16:54.486Z,21.06
2022-08-01T20:19:24.343Z,21.06
2022-08-01T20:22:04.193Z,21.00
2022-08-01T20:24:38.082Z,21.06
2022-08-01T20:27:08.240Z,21.00
2022-08-01T20:29:36.620Z,21.02
2022-08-01T20:32:03.960Z,21.03
2022-08-01T20:34:34.315Z,20.96
2022-08-01T20:37:01.382Z,20.91
2022-08-01T20:39:36.336Z,20.90
2022-08-01T20:42:04.002Z,20.85
2022-08-01T20:44:33.819Z,20.79
2022-08-01T20:47:02.598Z,20.69
2022-08-01T20:49:30.201Z,20.67
2022-08-01T20:51:57.270Z,20.59
2022-08-01T20:54:24.040Z,20.50
2022-08-01T20:57:05.145Z,20.53
2022-08-01T20:59:39.545Z,20.47
2022-08-01T21:02:41.521Z,20.57
2022-08-01T21:05:12.569Z,20.45
2022-08-01T21:07:43.446Z,20.47
2022-08-01T21:10:12.980Z,20.47
2022-08-01T21:13:07.442Z,20.37
2022-08-01T21:15:40.350Z,20.42
2022-08-01T21:18:58.197Z,20.38
2022-08-01T21:21:35.694Z,20.42
2022-08-01T21:24:09.136Z,20.23
2022-08-01T21:26:36.239Z,20.16
2022-08-01T21:29:07.387Z,20.07
2022-08-01T21:31:40.954Z,20.01
2022-08-01T21:34:09.040Z,20.08
2022-08-01T21:36:36.596Z,20.03
2022-08-01T21:39:06.018Z,19.99
2022-08-01T21:41:58.044Z,20.03
2022-08-01T21:44:20.182Z,20.14
2022-08-01T21:46:48.189Z,20.15
2022-08-01T21:49:15.003Z,20.23
2022-08-01T21:51:45.534Z,20.24
2022-08-01T21:54:27.505Z,20.08
2022-08-01T21:56:54.178Z,20.09
2022-08-01T21:59:30.861Z,20.10
2022-08-01T22:02:02.187Z,19.87
2022-08-01T22:04:52.776Z,19.88
2022-08-01T22:07:19.449Z,19.92
2022-08-01T22:09:49.032Z,19.84
2022-08-01T22:12:18.910Z,19.80
2022-08-01T22:14:49.109Z,19.55
2022-08-01T22:17:23.762Z,19.37
2022-08-01T22:19:54.035Z,19.45
2022-08-01T22:22:45.063Z,19.39
2022-08-01T22:25:12.100Z,19.37
2022-08-01T22:28:06.743Z,19.30
2022-08-01T22:30:29.057Z,19.36
2022-08-01T22:33:15.391Z,19.35
2022-08-01T22:35:45.651Z,19.30
2022-08-01T22:38:12.573Z,19.26
2022-08-01T22:40:45.927Z,19.25
2022-08-01T22:43:43.028Z,19.21
2022-08-01T22:46:29.431Z,19.07
2022-08-01T22:49:14.830Z,19.04
2022-08-01T22:51:43.919Z,18.95
2022-08-01T22:54:29.259Z,18.90
2022-08-01T22:56:57.337Z,18.89
2022-08-01T22:59:42.634Z,18.83
2022-08-01T23:02:10.560Z,18.79
2022-08-01T23:04:45.915Z,18.71
2022-08-01T23:07:12.492Z,18.60
2022-08-01T23:09:54.118Z,18.47
2022-08-01T23:12:24.159Z,18.44
2022-08-01T23:14:53.323Z,18.42
2022-08-01T23:17:26.879Z,18.37
2022-08-01T23:19:58.795Z,18.32
2022-08-01T23:22:29.169Z,18.26
2022-08-01T23:25:03.430Z,18.29
2022-08-01T23:28:03.917Z,18.26
2022-08-01T23:30:19.733Z,18.21
2022-08-01T23:32:46.307Z,18.21
2022-08-01T23:35:12.966Z,18.13
2022-08-01T23:37:39.596Z,18.02
2022-08-01T23:40:06.768Z,18.08
2022-08-01T23:42:33.502Z,18.09
2022-08-01T23:45:00.145Z,18.08
2022-08-01T23:47:26.934Z,18.02
2022-08-01T23:49:53.847Z,17.97
2022-08-01T23:52:21.567Z,17.96
2022-08-01T23:54:48.338Z,17.77
2022-08-01T23:57:16.516Z,17.83
2022-08-01T23:59:53.205Z,17.93
